Portada
METAR-TAF:

METAR-TAF

Aeroports :

Sukhothai, Tailàndia

latitud: 17-14-16N, longitud: 099-49-05E, altitud: 55 m

Observació

L'informe es va fer fa 2 hores i 16 minuts, a les 10:00 UTC
Vent 4 kt del Sud/Sud-Est
Temperatura 37°C
Humitat 40%
Pressió 1005 hPa
Visibilitat: 7000 m
Escasses núvols a una alçada de 2500 ft

METAR: VTPO 091000Z 16004KT 7000 FEW025 37/21 Q1005 NOSIG

Hora: 19:16 (12:16 UTC)

Pronòstic

L'informe es va fer fa 1 hora i 16 minuts, a les 11:00 UTC
Pronòstic vàlid del 09 a les 12 UTC al 10 a les 12 UTC
Vent 5 kt del Sud/Sud-Est
Visibilitat: 7000 m
Escasses núvols a una alçada de 2500 ft
Evolucionant progressivament
l' 10 a les 00 UTC al 10 a les 02 UTC
Visibilitat: 2000 m
boirina
Evolucionant progressivament
l' 10 a les 04 UTC al 10 a les 06 UTC
Visibilitat: 9000 m

TAF: VTPO 091100Z 0912/1012 16005KT 7000 FEW025 BECMG 1000/1002 2000 BR BECMG 1004/1006 9000 NSW

Observacions i pronòstics meteorològics de més de 4000 aeroports (METAR i TAF).

Les estacions disponibles són els punts grocs i vermells al mapa.

Posi el ratolí al punt desitjat per veure el nom de l'estació.

Feu clic per veure les observacions i els pronòstics meteorològics.

Per canviar el mapa: feu clic els botons verds amb una creu de color negre per apropar; al botó verd amb un guió per allunyar la imatge; o en les fletxes verdes per a mapes adjacents.


METAR-TAF: